createdAt,value
2018-05-13T00:01:31.565Z,16.50
2018-05-13T00:02:31.196Z,15.70
2018-05-13T00:04:24.931Z,15.00
2018-05-13T00:05:24.904Z,15.40
2018-05-13T00:07:18.386Z,16.20
2018-05-13T00:08:17.920Z,15.70
2018-05-13T00:10:11.684Z,17.30
2018-05-13T00:11:11.319Z,17.30
2018-05-13T00:13:06.283Z,15.40
2018-05-13T00:14:06.052Z,14.90
2018-05-13T00:15:59.483Z,15.00
2018-05-13T00:16:59.374Z,15.60
2018-05-13T00:18:52.880Z,16.40
2018-05-13T00:19:52.386Z,17.30
2018-05-13T00:21:46.667Z,14.60
2018-05-13T00:22:45.765Z,16.00
2018-05-13T00:24:39.576Z,15.10
2018-05-13T00:25:39.145Z,15.30
2018-05-13T00:27:32.960Z,15.80
2018-05-13T00:28:32.899Z,15.80
2018-05-13T00:30:26.304Z,14.30
2018-05-13T00:31:25.987Z,14.30
2018-05-13T00:33:19.607Z,14.60
2018-05-13T00:34:19.639Z,17.60
2018-05-13T00:36:12.992Z,16.20
2018-05-13T00:37:13.498Z,13.90
2018-05-13T00:39:05.904Z,14.50
2018-05-13T00:40:05.920Z,15.00
2018-05-13T00:41:59.266Z,14.50
2018-05-13T00:42:58.878Z,16.20
2018-05-13T00:44:57.648Z,17.20
2018-05-13T00:45:57.152Z,14.30
2018-05-13T00:47:50.580Z,14.80
2018-05-13T00:48:50.137Z,15.50
2018-05-13T00:50:43.940Z,14.50
2018-05-13T00:51:44.094Z,14.50
2018-05-13T00:53:37.258Z,16.40
2018-05-13T00:54:36.886Z,16.90
2018-05-13T00:56:30.728Z,13.80
2018-05-13T00:57:30.571Z,14.80
2018-05-13T00:59:24.634Z,14.40
2018-05-13T01:00:23.602Z,17.40
2018-05-13T01:02:17.360Z,13.90
2018-05-13T01:03:17.032Z,13.80
2018-05-13T01:05:11.288Z,14.10
2018-05-13T01:06:10.388Z,13.20
2018-05-13T01:08:04.175Z,15.70
2018-05-13T01:09:04.068Z,16.90
2018-05-13T01:10:58.155Z,13.70
2018-05-13T01:11:57.531Z,14.70
2018-05-13T01:13:50.980Z,15.70
2018-05-13T01:14:50.866Z,14.70
2018-05-13T01:16:44.293Z,16.00
2018-05-13T01:17:43.911Z,17.40
2018-05-13T01:19:38.169Z,16.40
2018-05-13T01:20:37.696Z,15.20
2018-05-13T01:22:31.156Z,14.00
2018-05-13T01:23:30.999Z,15.10
2018-05-13T01:25:24.450Z,13.90
2018-05-13T01:26:23.959Z,13.60
2018-05-13T01:28:18.320Z,14.30
2018-05-13T01:29:17.677Z,13.90
2018-05-13T01:31:10.901Z,14.50
2018-05-13T01:32:10.548Z,14.60
2018-05-13T01:34:04.314Z,15.40
2018-05-13T01:35:04.268Z,13.70
2018-05-13T01:36:57.658Z,14.00
2018-05-13T01:37:57.661Z,14.20
2018-05-13T01:39:51.012Z,20.00
2018-05-13T01:40:50.999Z,15.50
2018-05-13T01:42:44.379Z,16.30
2018-05-13T01:43:44.317Z,19.40
2018-05-13T01:45:37.712Z,15.70
2018-05-13T01:46:37.710Z,18.00
2018-05-13T01:48:31.200Z,12.90
2018-05-13T01:49:30.709Z,16.20
2018-05-13T01:51:24.465Z,17.60
2018-05-13T01:52:24.110Z,16.30
2018-05-13T01:54:17.879Z,15.70
2018-05-13T01:55:17.515Z,10.80
2018-05-13T01:57:11.109Z,11.20
2018-05-13T01:58:11.092Z,11.30
2018-05-13T02:00:04.468Z,8.10
2018-05-13T02:01:04.105Z,9.70
2018-05-13T02:02:57.899Z,9.20
2018-05-13T02:03:57.792Z,8.70
2018-05-13T02:05:51.229Z,10.00
2018-05-13T02:06:50.843Z,11.00
2018-05-13T02:08:44.735Z,9.80
2018-05-13T02:09:45.067Z,9.50
2018-05-13T02:11:37.967Z,10.10
2018-05-13T02:12:37.962Z,10.00
2018-05-13T02:14:31.268Z,7.90
2018-05-13T02:15:30.893Z,8.00
2018-05-13T02:17:25.309Z,9.40
2018-05-13T02:18:24.278Z,8.60
2018-05-13T02:20:17.941Z,8.60
2018-05-13T02:21:17.934Z,7.70
2018-05-13T02:23:11.308Z,8.20
2018-05-13T02:24:11.555Z,6.50
2018-05-13T02:26:05.752Z,9.50
2018-05-13T02:27:04.702Z,8.30
2018-05-13T02:28:58.110Z,9.70
2018-05-13T02:29:57.723Z,9.70
2018-05-13T02:31:51.463Z,7.60
2018-05-13T02:32:51.084Z,8.10
2018-05-13T02:34:51.495Z,8.80
2018-05-13T02:35:51.779Z,7.10
2018-05-13T02:37:44.915Z,7.90
2018-05-13T02:38:45.277Z,10.30
2018-05-13T02:40:38.545Z,8.80
2018-05-13T02:41:38.538Z,6.00
2018-05-13T02:43:31.908Z,7.70
2018-05-13T02:44:31.935Z,8.70
2018-05-13T02:46:26.855Z,7.80
2018-05-13T02:47:25.942Z,6.40
2018-05-13T02:49:19.676Z,8.10
2018-05-13T02:50:19.662Z,8.90
2018-05-13T02:52:13.661Z,6.00
2018-05-13T02:53:12.683Z,6.40
2018-05-13T02:55:06.506Z,5.10
2018-05-13T02:56:06.079Z,5.10
2018-05-13T02:58:00.177Z,5.90
2018-05-13T02:58:59.488Z,8.60
2018-05-13T03:00:53.780Z,6.30
2018-05-13T03:01:53.143Z,8.60
2018-05-13T03:03:46.568Z,7.70
2018-05-13T03:04:46.205Z,9.00
2018-05-13T03:06:47.019Z,8.30
2018-05-13T03:07:46.991Z,8.00
2018-05-13T03:09:40.389Z,10.90
2018-05-13T03:10:40.375Z,7.70
2018-05-13T03:12:33.758Z,8.20
2018-05-13T03:13:33.353Z,8.80
2018-05-13T03:15:27.064Z,8.20
2018-05-13T03:16:27.045Z,9.10
2018-05-13T03:18:21.876Z,10.80
2018-05-13T03:19:21.859Z,8.90
2018-05-13T03:21:15.257Z,11.30
2018-05-13T03:22:15.205Z,10.20
2018-05-13T03:24:09.044Z,10.10
2018-05-13T03:25:09.030Z,9.50
2018-05-13T03:27:03.581Z,10.00
2018-05-13T03:28:03.427Z,11.30
2018-05-13T03:29:57.212Z,9.10
2018-05-13T03:30:57.155Z,9.30
2018-05-13T03:32:50.068Z,9.10
2018-05-13T03:33:50.070Z,9.30
2018-05-13T03:35:43.982Z,10.30
2018-05-13T03:36:43.039Z,10.70
2018-05-13T03:38:36.771Z,9.80
2018-05-13T03:39:36.443Z,12.90
2018-05-13T03:41:30.210Z,10.80
2018-05-13T03:42:29.763Z,8.60
2018-05-13T03:44:25.097Z,9.50
2018-05-13T03:45:24.484Z,10.70
2018-05-13T03:47:32.427Z,9.80
2018-05-13T03:48:32.130Z,10.00
2018-05-13T03:50:25.411Z,12.20
2018-05-13T03:51:25.428Z,12.20
2018-05-13T03:53:18.874Z,13.00
2018-05-13T03:54:18.476Z,10.40
2018-05-13T03:56:12.294Z,9.70
2018-05-13T03:57:12.259Z,10.40
2018-05-13T03:59:05.755Z,11.10
2018-05-13T04:00:06.165Z,12.40
2018-05-13T04:01:59.027Z,12.30
2018-05-13T04:02:58.648Z,12.20
2018-05-13T04:04:52.411Z,12.60
2018-05-13T04:05:51.978Z,13.00
2018-05-13T04:07:46.322Z,13.00
2018-05-13T04:08:47.916Z,11.70
2018-05-13T04:10:39.198Z,11.80
2018-05-13T04:11:39.081Z,12.40
2018-05-13T04:13:32.534Z,11.60
2018-05-13T04:14:32.880Z,11.80
2018-05-13T04:16:26.557Z,12.00
2018-05-13T04:17:25.850Z,11.30
2018-05-13T04:19:19.781Z,13.70
2018-05-13T04:20:18.861Z,13.70
2018-05-13T04:22:12.654Z,12.30
2018-05-13T04:23:12.632Z,11.60
2018-05-13T04:25:06.507Z,12.80
2018-05-13T04:26:05.599Z,13.30
2018-05-13T04:27:59.404Z,12.30
2018-05-13T04:28:58.982Z,13.40
2018-05-13T04:30:53.331Z,12.40
2018-05-13T04:31:52.733Z,13.50
2018-05-13T04:33:46.721Z,15.50
2018-05-13T04:34:45.812Z,12.10
2018-05-13T04:36:39.666Z,13.00
2018-05-13T04:37:40.390Z,15.00
2018-05-13T04:39:32.897Z,12.90
2018-05-13T04:40:32.827Z,13.20
2018-05-13T04:42:26.132Z,13.10
2018-05-13T04:43:26.318Z,13.40
2018-05-13T04:45:19.579Z,14.90
2018-05-13T04:46:20.095Z,12.80
2018-05-13T04:48:12.971Z,14.40
2018-05-13T04:49:12.902Z,13.90
2018-05-13T04:51:06.304Z,13.30
2018-05-13T04:52:06.199Z,13.50
2018-05-13T04:53:59.652Z,12.30
2018-05-13T04:55:01.118Z,13.20
2018-05-13T04:56:53.029Z,12.90
2018-05-13T04:57:52.624Z,13.30
2018-05-13T04:59:47.052Z,14.80
2018-05-13T05:00:46.018Z,12.60
2018-05-13T05:02:39.724Z,13.80
2018-05-13T05:03:39.397Z,14.50
2018-05-13T05:05:33.138Z,15.70
2018-05-13T05:06:33.481Z,13.00
2018-05-13T05:08:26.583Z,14.80
2018-05-13T05:09:26.223Z,13.00
2018-05-13T05:11:20.852Z,13.30
2018-05-13T05:12:19.778Z,13.50
2018-05-13T05:14:14.029Z,12.60
2018-05-13T05:15:13.146Z,14.00
2018-05-13T05:17:06.550Z,12.90
2018-05-13T05:18:06.891Z,13.10
2018-05-13T05:20:02.402Z,14.20
2018-05-13T05:21:00.404Z,15.00
2018-05-13T05:22:53.306Z,15.50
2018-05-13T05:23:52.926Z,13.50
2018-05-13T05:25:46.718Z,13.60
2018-05-13T05:26:47.183Z,15.40
2018-05-13T05:28:40.045Z,15.10
2018-05-13T05:29:41.016Z,15.70
2018-05-13T05:31:33.460Z,14.60
2018-05-13T05:32:33.900Z,15.40
2018-05-13T05:34:26.876Z,15.40
2018-05-13T05:35:26.480Z,13.40
2018-05-13T05:37:21.246Z,12.80
2018-05-13T05:38:20.180Z,12.70
2018-05-13T05:40:13.574Z,12.90
2018-05-13T05:41:14.550Z,13.60
2018-05-13T05:43:07.977Z,16.50
2018-05-13T05:44:06.914Z,14.60
2018-05-13T05:46:01.367Z,12.40
2018-05-13T05:47:01.785Z,13.30
2018-05-13T05:48:54.283Z,17.10
2018-05-13T05:49:54.123Z,14.50
2018-05-13T05:51:48.188Z,15.20
2018-05-13T05:52:47.507Z,16.10
2018-05-13T05:54:41.400Z,14.50
2018-05-13T05:55:41.895Z,14.60
2018-05-13T05:57:35.252Z,15.20
2018-05-13T05:58:35.478Z,16.40
2018-05-13T06:00:28.171Z,15.10
2018-05-13T06:01:27.741Z,13.90
2018-05-13T06:03:21.160Z,15.60
2018-05-13T06:04:21.564Z,15.80
2018-05-13T06:06:14.970Z,13.80
2018-05-13T06:07:14.306Z,15.00
2018-05-13T06:09:07.895Z,13.70
2018-05-13T06:10:07.223Z,14.20
2018-05-13T06:12:00.800Z,16.10
2018-05-13T06:13:00.664Z,16.70
2018-05-13T06:14:54.068Z,15.50
2018-05-13T06:15:54.091Z,13.80
2018-05-13T06:17:48.544Z,14.70
2018-05-13T06:18:47.444Z,14.70
2018-05-13T06:20:41.349Z,13.30
2018-05-13T06:21:40.784Z,13.60
2018-05-13T06:23:34.284Z,13.80
2018-05-13T06:24:34.200Z,14.20
2018-05-13T06:26:27.621Z,15.80
2018-05-13T06:27:27.550Z,14.20
2018-05-13T06:29:21.525Z,14.80
2018-05-13T06:30:21.544Z,14.50
2018-05-13T06:32:14.916Z,16.00
2018-05-13T06:33:14.831Z,14.80
2018-05-13T06:35:08.237Z,14.90
2018-05-13T06:36:08.172Z,15.30
2018-05-13T06:38:01.716Z,17.60
2018-05-13T06:39:02.102Z,17.20
2018-05-13T06:40:55.062Z,16.80
2018-05-13T06:41:54.574Z,15.60
2018-05-13T06:43:48.426Z,15.80
2018-05-13T06:44:47.924Z,15.50
2018-05-13T06:46:42.304Z,15.00
2018-05-13T06:47:42.308Z,15.00
2018-05-13T06:49:36.400Z,14.70
2018-05-13T06:50:34.985Z,16.60
2018-05-13T06:52:28.740Z,14.50
2018-05-13T06:53:29.121Z,14.20
2018-05-13T06:55:22.017Z,16.40
2018-05-13T06:56:21.587Z,14.90
2018-05-13T06:58:15.452Z,16.10
2018-05-13T06:59:16.390Z,14.60
2018-05-13T07:01:08.691Z,16.30
2018-05-13T07:02:11.328Z,17.10
2018-05-13T07:04:02.087Z,16.50
2018-05-13T07:05:01.701Z,17.30
2018-05-13T07:06:56.008Z,16.40
2018-05-13T07:07:55.413Z,15.50
2018-05-13T07:09:50.886Z,17.20
2018-05-13T07:10:48.487Z,19.70
2018-05-13T07:12:42.905Z,14.90
2018-05-13T07:13:42.150Z,17.40
2018-05-13T07:15:37.496Z,19.00
2018-05-13T07:16:37.183Z,18.80
2018-05-13T07:18:30.043Z,18.50
2018-05-13T07:19:30.061Z,16.00
2018-05-13T07:21:22.502Z,17.50
2018-05-13T07:22:23.434Z,15.10
2018-05-13T07:24:16.795Z,15.70
2018-05-13T07:25:15.773Z,16.40
2018-05-13T07:27:09.243Z,18.50
2018-05-13T07:28:09.164Z,20.80
2018-05-13T07:30:03.112Z,19.90
2018-05-13T07:31:02.444Z,20.80
2018-05-13T07:32:55.922Z,18.40
2018-05-13T07:33:55.612Z,20.70
2018-05-13T07:35:49.382Z,19.90
2018-05-13T07:36:50.874Z,19.60
2018-05-13T07:38:42.752Z,20.50
2018-05-13T07:39:43.056Z,22.90
2018-05-13T07:41:37.120Z,25.20
2018-05-13T07:42:35.963Z,23.10
2018-05-13T07:44:29.435Z,28.30
2018-05-13T07:45:29.153Z,27.90
2018-05-13T07:47:22.858Z,24.40
2018-05-13T07:48:22.844Z,25.40
2018-05-13T07:50:17.918Z,26.10
2018-05-13T07:51:16.188Z,26.70
2018-05-13T07:53:10.326Z,28.60
2018-05-13T07:54:11.956Z,26.80
2018-05-13T07:56:05.153Z,28.40
2018-05-13T07:57:05.150Z,29.50
2018-05-13T07:58:58.359Z,28.80
2018-05-13T07:59:56.786Z,31.20
2018-05-13T08:01:52.218Z,31.10
2018-05-13T08:02:49.715Z,33.30
2018-05-13T08:04:44.416Z,35.40
2018-05-13T08:05:43.933Z,37.50
2018-05-13T08:07:39.033Z,40.70
2018-05-13T08:08:38.427Z,43.90
2018-05-13T08:10:31.577Z,45.90
2018-05-13T08:11:31.810Z,39.70
2018-05-13T08:13:23.718Z,41.50
2018-05-13T08:15:37.979Z,42.80
2018-05-13T08:16:36.793Z,41.10
2018-05-13T08:18:31.784Z,43.80
2018-05-13T08:19:31.873Z,42.00
2018-05-13T08:21:23.854Z,43.90
2018-05-13T08:22:25.212Z,43.70
2018-05-13T08:24:17.714Z,41.00
2018-05-13T08:25:16.713Z,42.60
2018-05-13T08:27:11.254Z,43.60
2018-05-13T08:28:10.829Z,45.60
2018-05-13T08:30:03.847Z,44.80
2018-05-13T08:31:03.791Z,43.40
2018-05-13T08:32:58.176Z,44.40
2018-05-13T08:33:57.006Z,44.60
2018-05-13T08:35:50.597Z,46.60
2018-05-13T08:36:50.440Z,47.30
2018-05-13T08:38:45.018Z,46.80
2018-05-13T08:39:43.640Z,47.70
2018-05-13T08:41:37.139Z,47.50
2018-05-13T08:42:37.131Z,45.60
2018-05-13T08:44:31.085Z,45.00
2018-05-13T08:45:31.964Z,41.70
2018-05-13T08:47:26.057Z,44.90
2018-05-13T08:48:23.639Z,43.10
2018-05-13T08:50:18.275Z,45.40
2018-05-13T08:51:16.826Z,44.20
2018-05-13T08:53:10.260Z,43.00
2018-05-13T08:54:09.905Z,44.40
2018-05-13T08:56:03.874Z,43.20
2018-05-13T08:57:03.325Z,39.80
2018-05-13T08:58:58.429Z,46.90
2018-05-13T08:59:58.041Z,43.00
2018-05-13T09:01:50.940Z,39.00
2018-05-13T09:02:51.450Z,39.70
2018-05-13T09:04:44.877Z,43.70
2018-05-13T09:05:45.703Z,39.70
2018-05-13T09:07:37.868Z,43.90
2018-05-13T09:08:39.026Z,42.00
2018-05-13T09:10:30.929Z,40.80
2018-05-13T09:11:30.878Z,41.00
2018-05-13T09:13:24.783Z,45.10
2018-05-13T09:14:23.632Z,41.80
2018-05-13T09:16:19.265Z,44.30
2018-05-13T09:17:18.882Z,43.30
2018-05-13T09:19:10.896Z,45.30
2018-05-13T09:20:10.664Z,46.90
2018-05-13T09:22:05.471Z,47.40
2018-05-13T09:23:03.849Z,47.90
2018-05-13T09:24:57.437Z,44.00
2018-05-13T09:25:57.457Z,47.80
2018-05-13T09:27:51.602Z,49.40
2018-05-13T09:28:51.268Z,51.40
2018-05-13T09:31:36.208Z,52.50
2018-05-13T09:32:35.106Z,47.50
2018-05-13T09:34:30.272Z,49.80
2018-05-13T09:35:30.096Z,48.90
2018-05-13T09:37:22.886Z,50.90
2018-05-13T09:38:24.896Z,54.00
2018-05-13T09:40:16.858Z,53.80
2018-05-13T09:41:15.418Z,58.70
2018-05-13T09:43:16.914Z,58.50
2018-05-13T09:44:08.832Z,59.00
2018-05-13T09:46:54.741Z,57.70
2018-05-13T09:47:54.158Z,57.00
2018-05-13T09:49:47.889Z,59.50
2018-05-13T09:50:47.867Z,60.00
2018-05-13T09:52:46.699Z,54.70
2018-05-13T09:53:40.077Z,56.90
2018-05-13T09:55:34.408Z,55.40
2018-05-13T09:56:33.537Z,59.80
2018-05-13T09:58:27.643Z,54.00
2018-05-13T09:59:27.247Z,57.60
2018-05-13T10:02:11.737Z,55.80
2018-05-13T10:03:12.220Z,55.30
2018-05-13T10:05:06.253Z,55.30
2018-05-13T10:06:06.328Z,55.20
2018-05-13T10:08:00.131Z,56.60
2018-05-13T10:08:59.205Z,58.10
2018-05-13T10:10:52.456Z,58.60
2018-05-13T10:11:52.066Z,56.70
2018-05-13T10:13:47.150Z,56.10
2018-05-13T10:14:46.395Z,55.70
2018-05-13T10:16:40.282Z,52.30
2018-05-13T10:17:39.484Z,55.70
2018-05-13T10:19:37.390Z,54.50
2018-05-13T10:20:37.260Z,54.50
2018-05-13T10:22:31.696Z,51.60
2018-05-13T10:23:30.723Z,51.90
2018-05-13T10:25:25.377Z,54.50
2018-05-13T10:26:24.161Z,57.90
2018-05-13T10:28:18.320Z,52.10
2018-05-13T10:29:18.847Z,53.10
2018-05-13T10:31:12.344Z,52.40
2018-05-13T10:32:11.688Z,53.50
2018-05-13T10:34:08.205Z,51.40
2018-05-13T10:35:06.066Z,50.20
2018-05-13T10:36:58.951Z,51.20
2018-05-13T10:37:59.022Z,50.40
2018-05-13T10:39:54.424Z,53.60
2018-05-13T10:40:53.973Z,50.40
2018-05-13T10:42:49.072Z,53.20
2018-05-13T10:43:47.693Z,52.10
2018-05-13T10:45:40.476Z,53.20
2018-05-13T10:46:39.187Z,52.60
2018-05-13T10:48:34.121Z,56.00
2018-05-13T10:49:33.053Z,51.60
2018-05-13T10:51:25.977Z,53.40
2018-05-13T10:52:25.618Z,54.50
2018-05-13T10:54:30.271Z,49.50
2018-05-13T10:55:18.870Z,52.00
2018-05-13T10:57:11.863Z,51.10
2018-05-13T10:58:11.442Z,53.50
2018-05-13T11:00:05.769Z,49.90
2018-05-13T11:01:04.949Z,46.80
2018-05-13T11:03:00.579Z,48.10
2018-05-13T11:03:59.599Z,48.90
2018-05-13T11:05:53.250Z,51.60
2018-05-13T11:06:52.530Z,55.00
2018-05-13T11:08:46.458Z,49.80
2018-05-13T11:09:47.372Z,48.80
2018-05-13T11:11:39.666Z,51.30
2018-05-13T11:12:39.091Z,50.80
2018-05-13T11:14:33.491Z,48.90
2018-05-13T11:15:33.934Z,49.90
2018-05-13T11:17:26.334Z,54.00
2018-05-13T11:18:25.522Z,53.30
2018-05-13T11:20:20.092Z,57.30
2018-05-13T11:21:19.661Z,56.80
2018-05-13T11:23:12.583Z,57.40
2018-05-13T11:24:12.316Z,59.70
2018-05-13T11:26:06.776Z,58.10
2018-05-13T11:27:05.826Z,62.30
2018-05-13T11:29:01.363Z,55.40
2018-05-13T11:29:59.079Z,59.30
2018-05-13T11:31:52.970Z,59.90
2018-05-13T11:32:53.389Z,59.60
2018-05-13T11:34:48.263Z,58.00
2018-05-13T11:35:45.791Z,58.70
2018-05-13T11:37:40.095Z,59.40
2018-05-13T11:38:39.202Z,56.50
2018-05-13T11:40:33.123Z,55.00
2018-05-13T11:41:32.088Z,54.00
2018-05-13T11:43:26.524Z,54.30
2018-05-13T11:44:26.902Z,55.50
2018-05-13T11:46:22.763Z,54.20
2018-05-13T11:47:21.223Z,58.30
2018-05-13T11:49:14.508Z,53.70
2018-05-13T11:50:13.491Z,52.50
2018-05-13T11:52:07.777Z,49.10
2018-05-13T11:53:07.262Z,47.70
2018-05-13T11:55:00.804Z,52.80
2018-05-13T11:56:01.345Z,51.20
2018-05-13T11:57:55.217Z,50.40
2018-05-13T11:58:55.177Z,49.80
2018-05-13T12:00:48.898Z,53.70
2018-05-13T12:01:48.334Z,57.20
2018-05-13T12:03:42.182Z,52.10
2018-05-13T12:04:42.166Z,54.80
2018-05-13T12:06:35.157Z,54.20
2018-05-13T12:07:36.905Z,50.60
2018-05-13T12:09:33.010Z,49.60
2018-05-13T12:10:32.405Z,51.70
2018-05-13T12:12:26.035Z,51.00
2018-05-13T12:13:25.719Z,51.30
2018-05-13T12:15:32.497Z,49.50
2018-05-13T12:16:30.780Z,48.50
2018-05-13T12:18:23.391Z,48.30
2018-05-13T12:19:25.035Z,50.90
2018-05-13T12:21:17.922Z,47.30
2018-05-13T12:22:15.786Z,50.90
2018-05-13T12:24:12.642Z,47.50
2018-05-13T12:25:11.153Z,46.70
2018-05-13T12:27:05.204Z,47.00
2018-05-13T12:28:04.107Z,46.70
2018-05-13T12:29:57.558Z,43.80
2018-05-13T12:30:57.961Z,45.30
2018-05-13T12:32:50.370Z,48.60
2018-05-13T12:33:50.318Z,49.10
2018-05-13T12:35:43.626Z,52.40
2018-05-13T12:36:43.406Z,50.20
2018-05-13T12:38:37.625Z,49.50
2018-05-13T12:39:37.656Z,47.50
2018-05-13T12:41:30.427Z,49.10
2018-05-13T12:42:30.465Z,48.00
2018-05-13T12:44:25.515Z,53.50
2018-05-13T12:45:24.780Z,53.70
2018-05-13T12:47:17.700Z,53.00
2018-05-13T12:48:17.004Z,54.00
2018-05-13T12:50:12.289Z,48.50
2018-05-13T12:51:12.124Z,52.70
2018-05-13T12:53:05.630Z,54.70
2018-05-13T12:54:05.051Z,53.30
2018-05-13T12:56:01.636Z,52.20
2018-05-13T12:56:59.188Z,51.60
2018-05-13T12:58:51.039Z,53.90
2018-05-13T12:59:51.206Z,53.30
2018-05-13T13:01:44.435Z,52.40
2018-05-13T13:02:46.205Z,55.50
2018-05-13T13:04:38.383Z,51.70
2018-05-13T13:05:38.880Z,49.60
2018-05-13T13:07:31.325Z,53.80
2018-05-13T13:08:31.631Z,56.20
2018-05-13T13:10:26.235Z,53.50
2018-05-13T13:11:24.529Z,51.90
2018-05-13T13:13:19.045Z,56.70
2018-05-13T13:14:17.962Z,54.60
2018-05-13T13:16:12.034Z,54.00
2018-05-13T13:17:11.831Z,56.10
2018-05-13T13:19:04.253Z,56.00
2018-05-13T13:20:03.999Z,55.50
2018-05-13T13:21:57.956Z,53.70
2018-05-13T13:22:59.018Z,57.60
2018-05-13T13:24:52.789Z,58.40
2018-05-13T13:25:51.166Z,59.10
2018-05-13T13:27:45.132Z,56.20
2018-05-13T13:28:44.560Z,60.10
2018-05-13T13:30:38.015Z,57.40
2018-05-13T13:31:37.410Z,55.70
2018-05-13T13:33:32.215Z,55.80
2018-05-13T13:34:30.340Z,61.60
2018-05-13T13:36:23.999Z,58.50
2018-05-13T13:37:24.722Z,58.60
2018-05-13T13:39:17.373Z,59.50
2018-05-13T13:40:17.308Z,56.50
2018-05-13T13:42:11.233Z,54.50
2018-05-13T13:43:11.193Z,56.80
2018-05-13T13:45:04.643Z,56.20
2018-05-13T13:46:04.513Z,55.80
2018-05-13T13:47:58.690Z,58.90
2018-05-13T13:48:58.959Z,59.00
2018-05-13T13:50:51.397Z,56.20
2018-05-13T13:51:50.975Z,53.50
2018-05-13T13:53:45.350Z,54.10
2018-05-13T13:54:44.354Z,55.00
2018-05-13T13:56:38.490Z,54.90
2018-05-13T13:57:38.656Z,54.20
2018-05-13T13:59:34.218Z,56.10
2018-05-13T14:00:32.562Z,58.30
2018-05-13T14:02:26.863Z,55.10
2018-05-13T14:03:24.904Z,53.10
2018-05-13T14:05:20.795Z,58.90
2018-05-13T14:06:20.372Z,52.00
2018-05-13T14:08:13.032Z,53.70
2018-05-13T14:09:13.540Z,53.50
2018-05-13T14:11:07.093Z,55.60
2018-05-13T14:12:05.898Z,57.50
2018-05-13T14:14:00.685Z,55.60
2018-05-13T14:14:59.061Z,58.90
2018-05-13T14:16:52.957Z,55.70
2018-05-13T14:17:54.071Z,55.80
2018-05-13T14:19:46.561Z,59.40
2018-05-13T14:20:46.439Z,59.40
2018-05-13T14:22:39.872Z,55.90
2018-05-13T14:23:39.727Z,58.30
2018-05-13T14:25:33.735Z,63.30
2018-05-13T14:26:32.137Z,62.40
2018-05-13T14:28:26.496Z,62.30
2018-05-13T14:29:25.711Z,65.10
2018-05-13T14:31:19.061Z,60.80
2018-05-13T14:32:19.467Z,60.60
2018-05-13T14:34:14.607Z,61.90
2018-05-13T14:35:12.889Z,62.00
2018-05-13T14:37:07.800Z,61.30
2018-05-13T14:38:07.429Z,62.80
2018-05-13T14:40:00.149Z,56.70
2018-05-13T14:41:00.198Z,57.20
2018-05-13T14:42:51.966Z,58.80
2018-05-13T14:43:51.901Z,58.10
2018-05-13T14:45:46.571Z,51.40
2018-05-13T14:46:45.450Z,49.90
2018-05-13T14:48:38.916Z,54.20
2018-05-13T14:49:38.869Z,56.80
2018-05-13T14:51:32.268Z,57.70
2018-05-13T14:52:32.180Z,57.10
2018-05-13T14:54:26.483Z,53.40
2018-05-13T14:55:26.027Z,53.80
2018-05-13T14:57:20.088Z,51.70
2018-05-13T14:58:20.115Z,52.00
2018-05-13T15:00:12.577Z,50.50
2018-05-13T15:01:12.183Z,56.90
2018-05-13T15:03:06.933Z,58.30
2018-05-13T15:04:06.905Z,50.50
2018-05-13T15:05:59.339Z,52.10
2018-05-13T15:06:58.956Z,50.80
2018-05-13T15:08:53.243Z,52.00
2018-05-13T15:09:53.193Z,52.90
2018-05-13T15:11:46.035Z,55.10
2018-05-13T15:12:47.500Z,55.50
2018-05-13T15:14:40.016Z,56.70
2018-05-13T15:15:39.448Z,63.30
2018-05-13T15:17:33.774Z,59.60
2018-05-13T15:18:32.545Z,56.00
2018-05-13T15:20:28.338Z,58.40
2018-05-13T15:21:26.683Z,60.70
2018-05-13T15:23:20.083Z,56.30
2018-05-13T15:24:19.184Z,59.90
2018-05-13T15:26:13.485Z,58.00
2018-05-13T15:27:12.584Z,58.10
2018-05-13T15:29:06.855Z,56.30
2018-05-13T15:30:06.312Z,56.00
2018-05-13T15:31:59.709Z,55.60
2018-05-13T15:33:00.202Z,58.10
2018-05-13T15:34:53.051Z,61.20
2018-05-13T15:35:53.508Z,58.30
2018-05-13T15:37:46.056Z,59.00
2018-05-13T15:38:46.023Z,60.10
2018-05-13T15:40:40.488Z,61.20
2018-05-13T15:41:41.021Z,61.80
2018-05-13T15:43:33.414Z,64.40
2018-05-13T15:44:32.972Z,61.70
2018-05-13T15:46:26.264Z,56.50
2018-05-13T15:47:25.913Z,60.50
2018-05-13T15:49:20.711Z,62.90
2018-05-13T15:50:20.476Z,61.30
2018-05-13T15:52:14.554Z,62.60
2018-05-13T15:55:12.019Z,58.50
2018-05-13T15:58:01.423Z,59.00
2018-05-13T15:59:01.823Z,64.80
2018-05-13T16:00:54.247Z,57.70
2018-05-13T16:01:54.140Z,61.30
2018-05-13T16:03:47.607Z,60.30
2018-05-13T16:04:46.810Z,61.30
2018-05-13T16:06:40.534Z,64.00
2018-05-13T16:07:41.307Z,63.30
2018-05-13T16:09:33.798Z,62.90
2018-05-13T16:10:33.513Z,64.80
2018-05-13T16:12:29.411Z,62.60
2018-05-13T16:13:27.718Z,59.50
2018-05-13T16:15:20.594Z,60.60
2018-05-13T16:16:20.175Z,59.90
2018-05-13T16:18:13.966Z,63.00
2018-05-13T16:19:14.924Z,65.20
2018-05-13T16:21:07.953Z,60.70
2018-05-13T16:22:08.324Z,64.10
2018-05-13T16:24:01.672Z,68.40
2018-05-13T16:25:00.785Z,66.70
2018-05-13T16:26:54.653Z,69.00
2018-05-13T16:27:53.755Z,69.20
2018-05-13T16:29:48.083Z,64.60
2018-05-13T16:30:47.450Z,65.80
2018-05-13T16:32:40.924Z,66.90
2018-05-13T16:33:40.886Z,64.50
2018-05-13T16:35:33.733Z,63.20
2018-05-13T16:36:33.636Z,61.00
2018-05-13T16:38:27.144Z,59.90
2018-05-13T16:39:26.731Z,63.10
2018-05-13T16:41:20.541Z,58.40
2018-05-13T16:42:20.132Z,60.10
2018-05-13T16:44:13.916Z,66.40
2018-05-13T16:45:13.956Z,65.90
2018-05-13T16:47:07.262Z,62.30
2018-05-13T16:48:06.872Z,61.70
2018-05-13T16:50:00.660Z,65.90
2018-05-13T16:51:00.224Z,62.40
2018-05-13T16:52:53.451Z,65.70
2018-05-13T16:53:53.106Z,60.70
2018-05-13T16:55:46.815Z,67.60
2018-05-13T16:56:46.525Z,64.40
2018-05-13T16:58:40.302Z,66.90
2018-05-13T16:59:40.177Z,65.40
2018-05-13T17:01:34.312Z,65.30
2018-05-13T17:02:33.318Z,65.80
2018-05-13T17:04:27.481Z,59.90
2018-05-13T17:05:26.633Z,61.80
2018-05-13T17:07:20.326Z,61.50
2018-05-13T17:08:19.945Z,59.10
2018-05-13T17:10:13.661Z,58.20
2018-05-13T17:11:13.680Z,63.60
2018-05-13T17:13:07.052Z,60.60
2018-05-13T17:14:06.749Z,59.50
2018-05-13T17:16:00.513Z,63.20
2018-05-13T17:17:01.108Z,61.20
2018-05-13T17:18:53.821Z,60.30
2018-05-13T17:19:53.417Z,64.10
2018-05-13T17:21:47.244Z,66.30
2018-05-13T17:22:46.845Z,60.30
2018-05-13T17:24:41.241Z,60.40
2018-05-13T17:25:40.536Z,61.20
2018-05-13T17:27:33.919Z,59.80
2018-05-13T17:28:34.175Z,58.30
2018-05-13T17:30:27.947Z,59.20
2018-05-13T17:31:27.280Z,61.40
2018-05-13T17:33:20.793Z,58.50
2018-05-13T17:34:20.690Z,59.60
2018-05-13T17:36:14.149Z,58.20
2018-05-13T17:37:14.637Z,60.80
2018-05-13T17:39:07.388Z,61.00
2018-05-13T17:40:07.055Z,63.20
2018-05-13T17:42:00.824Z,60.20
2018-05-13T17:43:00.923Z,58.90
2018-05-13T17:44:54.119Z,62.90
2018-05-13T17:45:53.784Z,64.50
2018-05-13T17:47:47.540Z,66.30
2018-05-13T17:48:47.157Z,63.90
2018-05-13T17:50:40.987Z,64.70
2018-05-13T17:51:42.418Z,66.80
2018-05-13T17:53:34.360Z,68.10
2018-05-13T17:54:34.455Z,68.10
2018-05-13T17:56:27.622Z,69.60
2018-05-13T17:57:27.398Z,67.40
2018-05-13T17:59:21.565Z,72.00
2018-05-13T18:00:21.410Z,71.10
2018-05-13T18:02:14.616Z,80.70
2018-05-13T18:03:15.173Z,75.60
2018-05-13T18:05:08.739Z,70.60
2018-05-13T18:07:58.435Z,71.20
2018-05-13T18:08:36.131Z,77.40
2018-05-13T18:10:31.208Z,81.70
2018-05-13T18:12:42.638Z,81.50
2018-05-13T18:13:46.140Z,80.70
2018-05-13T18:15:36.186Z,75.20
2018-05-13T18:16:35.481Z,71.80
2018-05-13T18:18:28.668Z,75.40
2018-05-13T18:19:28.614Z,78.50
2018-05-13T18:21:21.687Z,75.80
2018-05-13T18:22:21.656Z,75.30
2018-05-13T18:24:15.410Z,76.30
2018-05-13T18:25:15.004Z,77.30
2018-05-13T18:27:16.851Z,82.00
2018-05-13T18:28:16.109Z,84.30
2018-05-13T18:30:10.118Z,79.80
2018-05-13T18:31:10.152Z,82.60
2018-05-13T18:33:03.436Z,93.00
2018-05-13T18:34:03.673Z,85.60
2018-05-13T18:35:56.927Z,83.00
2018-05-13T18:36:56.502Z,82.60
2018-05-13T18:38:50.260Z,81.60
2018-05-13T18:39:49.971Z,77.90
2018-05-13T18:41:44.138Z,87.60
2018-05-13T18:42:43.622Z,86.40
2018-05-13T18:44:37.598Z,80.90
2018-05-13T18:45:37.447Z,84.00
2018-05-13T18:47:31.068Z,79.40
2018-05-13T18:48:30.371Z,80.60